NOAA/GLERL Met Station at Muskegon, MI

Previous 5 days (top of hour only)
See slso Previous 3 Hours (2 minute increments)
Jump down to Data
Switch to [English][Metric]
Zoom: Click and drag, Pan: shift-click and drag, Unzoom: double-click, Unzoom All





Zoom: Click and drag, Pan: shift-click and drag, Unzoom: double-click, Unzoom All

Note: Speed = mean wind during 2-minute period at top of hour,
Gust = max wind during 2-minute period at top of hour,
Peak = max wind during entire hour.
• See also 5-day windrose plot

NOAA/GLERL Met Station at Muskegon, MI

Previous 5 days (top of hour only)
See slso Previous 3 Hours (2 minute increments)
Jump up to Graphs
Switch to [English][Metric]
                  Wind  Wind  Wind   Air   Dew   Rel     Sta   PAR
                   Spd   Gst   Dir  Temp    Pt   Hum    Pres uE/m2/
YYYY-MM-DD   EDT   kts   kts   deg     F     F     %   in Hg   sec
2016-08-28 01:00   8.7   9.1   243  74.5  72.3  92.9   29.46     5
2016-08-28 00:00  12.1  13.6   250  73.9  71.9  93.1   29.45     5
2016-08-27 23:00   8.2   9.3   184  75.6  71.4  86.8   29.44     5
2016-08-27 22:00   8.2   9.3   185  75.2  72.3  90.4   29.44     5
2016-08-27 21:00   9.3  10.3   183  75.0  72.1  90.4   29.42     4
2016-08-27 20:00   8.2   9.5   188  74.5  71.9  91.6   29.42    69
2016-08-27 19:00   8.0   9.1   180  74.8  71.9  90.5   29.42   409
2016-08-27 18:00   8.2   9.3   194  75.9  71.5  85.9   29.41  1262
2016-08-27 17:00   6.6   7.8   218  73.6  70.7  90.4   29.42   585
2016-08-27 16:00   7.4   8.0   224  74.8  70.1  84.9   29.43  1808
2016-08-27 15:00   5.8   7.6   179  77.0  69.9  78.4   29.44  2515
2016-08-27 14:00   6.4   8.6   143  73.6  68.2  83.0   29.44  1641
2016-08-27 13:00   9.3  12.2   131  70.3  67.1  89.2   29.45  1355
2016-08-27 12:00   8.4  10.5   121  67.3  65.5  94.0   29.45   885
2016-08-27 11:00   9.9  12.8   113  64.8  63.3  95.0   29.47   530
2016-08-27 10:00   9.3  12.4   112  64.2  62.0  92.3   29.50   187
2016-08-27 09:00  10.7  14.2   107  64.2  61.4  90.4   29.52    70
2016-08-27 08:00   9.7  12.2    96  64.8  60.8  86.9   29.50    55
2016-08-27 07:00  10.3  12.6    93  64.8  60.1  84.6   29.49     6
2016-08-27 06:00   7.6  10.3    98  65.1  59.6  82.0   29.49     4
2016-08-27 05:00  10.3  12.1   106  64.9  58.6  79.7   29.50     4
2016-08-27 04:00  10.9  13.0    93  64.6  57.8  78.4   29.50     4
2016-08-27 03:00  10.1  12.4    96  65.3  56.6  73.0   29.52     4
2016-08-27 02:00   8.0   9.7    83  64.6  58.0  78.9   29.52     4
2016-08-27 01:00   7.8   8.7    84  64.8  57.7  77.5   29.53     4
2016-08-27 00:00   5.4   6.6    79  65.1  57.4  75.9   29.55     4
2016-08-26 23:00   7.2   8.2    48  66.7  58.1  73.3   29.55     4
2016-08-26 21:00   2.9   3.5    36  67.8  58.2  71.0   29.54     4
2016-08-26 20:00   5.8   7.6    16  70.5  58.2  64.6   29.52   375
2016-08-26 19:00   4.7   5.8   345  71.1  58.5  64.0   29.52   488
2016-08-26 18:00   7.4   8.2   339  72.1  59.2  63.3   29.53  1023
2016-08-26 17:00   8.4   9.9   336  71.8  59.1  63.8   29.53  1339
2016-08-26 16:00   8.7  10.3   325  72.5  58.8  61.7   29.54  2169
2016-08-26 15:00   8.4   9.1   323  71.2  58.6  63.8   29.55  1483
2016-08-26 14:00   7.8   8.6   304  71.1  59.9  67.5   29.55  1493
2016-08-26 13:00   7.6   9.5   315  71.6  59.8  65.9   29.55  2241
2016-08-26 12:00   7.4   8.7   320  71.4  59.9  66.5   29.56  2040
2016-08-26 11:00   8.2   9.5   331  71.4  60.5  68.0   29.55  1901
2016-08-26 10:00   7.2   8.6   329  71.1  60.2  68.0   29.54  1801
2016-08-26 09:00   4.9   6.4    23  71.1  61.3  71.0   29.53   755
2016-08-26 08:00   2.7   3.3    38  67.5  61.3  80.3   29.51   241
2016-08-26 07:00   6.2   6.8    20  67.8  61.0  78.5   29.50    15
2016-08-26 06:00   6.8   9.1     6  68.9  60.9  75.2   29.47     4
2016-08-26 05:00  11.5  13.4   348  71.6  62.0  71.3   29.47     4
2016-08-26 04:00  14.0  16.9   344  72.3  65.4  78.5   29.46     4
2016-08-26 03:00  17.5  19.8   322  73.6  66.3  77.7   29.46     5
2016-08-26 02:00  14.4  16.3   306  74.1  67.0  78.2   29.46     5
2016-08-26 01:00  12.4  14.2   294  74.1  68.0  80.8   29.44     4
2016-08-26 00:00  10.9  11.7   275  73.8  67.9  81.6   29.44     4
2016-08-25 23:00   8.9   9.9   280  73.6  66.4  77.8   29.42     4
2016-08-25 22:00   7.6   8.6   256  73.0  65.8  77.6   29.42     4
2016-08-25 21:00   4.7   5.2   288  73.2  63.8  71.9   29.41     4
2016-08-25 20:00   6.4   6.8   305  73.4  63.7  71.2   29.40   152
2016-08-25 19:00   5.2   6.0   311  74.1  64.0  70.2   29.40  1276
2016-08-25 18:00   7.4   8.2   313  73.6  64.4  72.7   29.40  1723
2016-08-25 17:00  10.3  11.7   330  74.1  65.8  74.9   29.40  1948
2016-08-25 16:00  10.7  11.9   328  73.9  66.3  76.8   29.40  2061
2016-08-25 15:00   9.9  11.1   334  74.3  66.8  77.0   29.40  2081
2016-08-25 14:00   8.4   9.1   343  73.6  66.8  78.9   29.39  2410
2016-08-25 13:00  12.4  13.4   338  73.6  67.1  79.9   29.39  2014
2016-08-25 12:00  11.1  11.9   325  73.6  69.1  85.6   29.38  1348
2016-08-25 11:00   6.0   6.8   309  73.4  70.4  90.3   29.36  1083
2016-08-25 10:00   2.9   3.1    63  72.0  70.6  95.4   29.34   543
2016-08-25 09:00   0.8   1.0   297  71.4  70.4  96.6   29.36    77
2016-08-25 08:00   2.7   3.7    77  70.5  69.6  96.9   29.34   160
2016-08-25 07:00   8.4   8.9   219  71.2  70.2  96.3   29.35     5
2016-08-25 06:00   2.7   3.3   359  73.0  71.9  96.3   29.33     5
2016-08-25 05:00   4.5   5.1   210  73.6  72.5  96.4   29.33     5
2016-08-25 04:00   1.2   1.4   253  74.1  72.5  94.7   29.32     5
2016-08-25 03:00   5.1   5.2   287  74.3  72.7  94.8   29.33     5
2016-08-25 02:00   8.4   8.9   287  74.5  72.6  93.7   29.31     5
2016-08-25 01:00   8.2   8.9   274  74.3  72.8  95.1   29.31     5
2016-08-25 00:00   9.7  10.7   238  74.5  73.0  95.1   29.32     5
2016-08-24 23:00  10.3  11.3   223  74.5  73.0  95.0   29.32     5
2016-08-24 22:00   8.9  10.1   216  74.5  73.0  95.0   29.32     5
2016-08-24 21:00   9.3  10.1   212  74.1  72.9  95.8   29.31     5
2016-08-24 20:00   9.7  10.7   221  74.7  72.8  93.7   29.31   311
2016-08-24 19:00  10.5  11.5   214  75.7  72.7  90.0   29.31  1291
2016-08-24 18:00  11.5  12.2   202  76.5  72.4  87.1   29.31  1844
2016-08-24 17:00  10.9  12.6   203  74.7  72.4  92.5   29.32   161
2016-08-24 16:00  10.9  12.4   217  74.8  72.4  92.0   29.32  1195
2016-08-24 15:00  15.6  16.9   226  74.7  71.9  90.9   29.33  1014
2016-08-24 14:00  19.6  21.4   219  75.0  71.6  88.8   29.34  2072
2016-08-24 13:00  19.1  21.2   208  76.3  71.7  85.5   29.34  2741
2016-08-24 12:00  21.0  22.9   225  73.9  70.8  89.6   29.36  1733
2016-08-24 11:00  20.8  22.7   225  73.8  70.6  89.7   29.36  1642
2016-08-24 10:00  22.2  24.9   217  73.2  69.6  88.2   29.37   199
2016-08-24 09:00  22.4  25.5   192  72.9  67.9  84.1   29.37   686
2016-08-24 08:00  16.5  20.4   183  71.1  66.3  84.7   29.38   332
2016-08-24 07:00  21.2  24.7   186  72.7  67.4  83.3   29.39    10
2016-08-24 06:00  23.7  26.0   195  72.1  67.1  83.9   29.41     5
2016-08-24 05:00  19.8  22.4   200  73.4  67.4  81.1   29.43     5
2016-08-24 04:00  18.9  21.4   200  73.0  66.9  80.9   29.45     5
2016-08-24 03:00  12.8  15.2   179  70.9  65.1  81.7   29.46     5
2016-08-24 02:00  10.3  13.0   174  70.9  63.6  77.3   29.46     5
2016-08-24 01:00  10.3  11.5   173  71.8  64.6  77.8   29.47     5
2016-08-24 00:00  11.3  13.0   173  72.1  63.1  72.7   29.49     5
2016-08-23 23:00   8.7  10.5   170  72.7  64.9  76.1   29.50     4
2016-08-23 22:00  10.9  12.8   189  73.8  66.5  77.6   29.52     4
2016-08-23 21:00  11.3  11.9   204  74.1  65.6  74.4   29.52     4
2016-08-23 20:00  11.1  11.9   210  75.4  66.2  72.8   29.54   365